Decoded Metar for LDPL (PULA in CROATIA) (IATA:PUY) | Meteo·Mobile Aviation Weather
aviador You're here:

LDPL Decoded Metar

PULA in CROATIA
Report Time2018-09-19 22:30:00
UTC Time2018-09-19 23:02:26
Flight Rules vfr VFR
Wind030° at 05 kt
W.Decomp.*RWY 09: 2.3 kt HW 4.5 kt LCW
W.Rank030° ranks 8
Current wind is below 030° avg. (5.9)
Visibility9999 m
Phenomena:N/A
Clouds:N/A
Expected CloudBase > 2,000 ft AGL from Temp-Dew spread
CeilingNone
Temp21°C (ISA +6)
Dew Point16°C (73% RH)
QNH1019 hPa
Density Alt997 ft
Elevation207 ft
Report Wrong Elevation
Raw Report
LDPL 192230Z 03005KT CAVOK 21/16 Q1019=

Extra information for LDPL:More info

Metar Taf Metar & Taf Last 4 Metars F.Rules Stats Wind Profile Meteogram Temp Stats Airport Information Weather charts Add Link Nearby VenuesMetar ALERT Operation Metar Decoded Social comments